Time;durP1;ratioP1;P1;durP2;ratioP2;P2;SDS_P1;SDS_P2;PMS_P1;PMS_P2;Temp;Humidity;BMP_temperature;BMP_pressure;BME280_temperature;BME280_humidity;BME280_pressure;Samples;Min_cycle;Max_cycle;Signal;HPM_P1;HPM_P2
2023/12/29 00:01:56;;;;;;;13.77;7.28;;;;;;;7.17;65.92;100008.38;5034206;27;101341;-82
2023/12/29 00:04:22;;;;;;;13.70;6.68;;;;;;;7.31;66.14;100021.09;5018290;27;97483;-82
2023/12/29 00:06:48;;;;;;;11.90;6.90;;;;;;;7.27;66.85;100020.28;5017316;27;96971;-82
2023/12/29 00:09:17;;;;;;;10.43;6.45;;;;;;;7.24;67.11;100016.03;5016807;27;100965;-83
2023/12/29 00:11:42;;;;;;;14.27;7.05;;;;;;;7.20;67.04;100009.16;5031853;27;97526;-82
2023/12/29 00:14:08;;;;;;;10.82;6.53;;;;;;;7.04;67.38;99984.34;5017767;27;96705;-82
2023/12/29 00:16:33;;;;;;;10.53;6.80;;;;;;;7.14;67.66;100006.69;5052747;27;96873;-82
2023/12/29 00:18:59;;;;;;;10.68;6.22;;;;;;;7.14;67.30;99992.78;5052135;27;97998;-82
2023/12/29 00:21:24;;;;;;;10.90;6.82;;;;;;;7.15;67.43;100000.56;5017272;27;98188;-82
2023/12/29 00:23:50;;;;;;;12.73;7.07;;;;;;;6.94;67.04;99954.13;5034289;27;97382;-82
2023/12/29 00:26:18;;;;;;;12.07;6.68;;;;;;;7.15;67.20;100003.16;5053176;27;97266;-82
2023/12/29 00:28:52;;;;;;;10.50;6.63;;;;;;;7.12;67.63;99989.34;5049801;27;98768;-82
2023/12/29 00:31:17;;;;;;;14.75;7.00;;;;;;;7.14;67.82;99992.78;5033219;27;98649;-83
2023/12/29 00:33:46;;;;;;;8.57;6.22;;;;;;;7.13;67.68;100005.00;5016668;27;97532;-83
2023/12/29 00:36:16;;;;;;;12.30;6.97;;;;;;;6.95;68.51;99995.88;5031764;27;97371;-82
2023/12/29 00:38:41;;;;;;;13.38;6.82;;;;;;;6.95;68.59;99987.16;5033828;27;97608;-82
2023/12/29 00:41:07;;;;;;;11.68;6.93;;;;;;;6.96;68.29;99983.66;5033498;27;97904;-82
2023/12/29 00:43:32;;;;;;;11.05;5.95;;;;;;;7.01;68.28;99985.28;5016483;27;96983;-83
2023/12/29 00:45:58;;;;;;;13.07;7.15;;;;;;;6.99;67.79;99979.22;5052646;27;96774;-83
2023/12/29 00:48:24;;;;;;;10.95;6.45;;;;;;;6.91;68.44;99986.38;5016315;27;100993;-83
2023/12/29 00:50:49;;;;;;;11.83;6.90;;;;;;;6.92;68.36;99988.09;5051249;27;97933;-83
2023/12/29 00:53:15;;;;;;;8.20;5.45;;;;;;;6.93;68.40;99994.19;5014891;27;97220;-82
2023/12/29 00:55:41;;;;;;;11.53;6.37;;;;;;;6.94;67.79;99990.66;5017331;27;97306;-82
2023/12/29 00:58:06;;;;;;;14.02;7.20;;;;;;;6.83;68.03;99961.34;5032897;27;98048;-83
2023/12/29 01:00:32;;;;;;;11.32;7.70;;;;;;;6.85;68.31;99970.88;5032786;27;98450;-82
2023/12/29 01:02:58;;;;;;;10.15;6.35;;;;;;;6.88;68.50;99969.94;5033733;27;98173;-82
2023/12/29 01:05:24;;;;;;;9.50;5.72;;;;;;;6.79;68.24;99961.44;5052168;27;96838;-83
2023/12/29 01:07:49;;;;;;;9.33;5.83;;;;;;;6.78;68.42;99980.59;5016034;27;100025;-82
2023/12/29 01:10:15;;;;;;;9.83;5.80;;;;;;;6.69;68.67;99966.91;5032691;27;99891;-82
2023/12/29 01:12:40;;;;;;;10.90;6.15;;;;;;;6.67;68.53;99959.13;5016491;27;96971;-82
2023/12/29 01:15:06;;;;;;;11.23;6.03;;;;;;;6.60;68.92;99949.72;5034153;27;96865;-83
2023/12/29 01:17:32;;;;;;;8.23;5.17;;;;;;;6.71;68.85;99955.53;5033023;27;97930;-82
2023/12/29 01:19:57;;;;;;;8.25;5.60;;;;;;;6.69;68.51;99946.03;5051442;27;97845;-82
2023/12/29 01:22:23;;;;;;;7.53;5.28;;;;;;;6.88;68.35;99968.19;5015830;27;96842;-82
2023/12/29 01:24:48;;;;;;;11.40;5.40;;;;;;;6.88;68.31;99962.97;5033633;27;96804;-82
2023/12/29 01:27:14;;;;;;;8.77;5.18;;;;;;;6.93;68.25;99966.31;5051137;27;98011;-82
2023/12/29 01:29:39;;;;;;;8.35;5.20;;;;;;;6.85;68.25;99951.75;5050868;27;98323;-82
2023/12/29 01:32:07;;;;;;;6.40;4.38;;;;;;;6.99;67.71;99967.94;5016079;27;96719;-82
2023/12/29 01:34:33;;;;;;;8.52;5.18;;;;;;;6.93;67.67;99937.63;5016332;27;97378;-82
2023/12/29 01:37:00;;;;;;;7.88;4.57;;;;;;;7.05;67.52;99961.69;5032930;27;97939;-82
2023/12/29 01:39:25;;;;;;;12.00;5.75;;;;;;;6.84;67.77;99930.03;5014468;27;100816;-81
2023/12/29 01:41:51;;;;;;;7.63;4.78;;;;;;;6.85;67.69;99936.09;5016263;27;96792;-82
2023/12/29 01:44:20;;;;;;;6.43;4.70;;;;;;;6.92;67.81;99971.56;5032103;27;97303;-82
2023/12/29 01:46:46;;;;;;;8.27;5.15;;;;;;;6.86;67.67;99967.34;5032118;27;97953;-82
2023/12/29 01:49:15;;;;;;;7.45;4.90;;;;;;;6.83;68.11;99954.38;5032675;27;98023;-82
2023/12/29 01:51:41;;;;;;;9.45;5.18;;;;;;;6.79;68.08;99951.00;5029910;27;97362;-82
2023/12/29 01:54:07;;;;;;;6.93;4.90;;;;;;;6.62;68.21;99937.50;5014088;27;97149;-82
2023/12/29 01:56:32;;;;;;;8.27;4.80;;;;;;;6.76;68.50;99956.28;5014938;27;103164;-81
2023/12/29 01:58:58;;;;;;;10.85;5.22;;;;;;;6.65;68.12;99926.16;5050450;27;97836;-83
2023/12/29 02:01:24;;;;;;;8.45;5.00;;;;;;;6.83;67.93;99956.16;5032129;27;98153;-82
2023/12/29 02:03:49;;;;;;;6.85;4.35;;;;;;;6.75;67.68;99931.13;5032404;27;96827;-82
2023/12/29 02:06:16;;;;;;;7.78;5.05;;;;;;;6.84;68.01;99961.34;5032728;27;97421;-82
2023/12/29 02:08:41;;;;;;;7.93;4.75;;;;;;;6.79;67.45;99942.31;5032356;27;97854;-82
2023/12/29 02:11:07;;;;;;;6.28;3.97;;;;;;;6.95;67.29;99956.72;5050711;27;97103;-83
2023/12/29 02:13:33;;;;;;;8.73;4.63;;;;;;;6.97;67.52;99944.47;5050680;27;97128;-82
2023/12/29 02:16:17;;;;;;;9.35;4.43;;;;;;;7.02;67.11;99931.31;5032477;27;101631;-82
2023/12/29 02:18:44;;;;;;;6.45;4.05;;;;;;;7.05;67.20;99927.78;5032008;27;98037;-82
2023/12/29 02:21:10;;;;;;;7.38;4.75;;;;;;;7.06;66.74;99925.09;5015784;27;96798;-82
2023/12/29 02:23:35;;;;;;;6.10;3.60;;;;;;;7.13;67.03;99928.44;5031954;27;96826;-83
2023/12/29 02:26:07;;;;;;;8.80;4.13;;;;;;;7.01;66.66;99906.97;5030021;27;97960;-82
2023/12/29 02:28:34;;;;;;;7.68;4.80;;;;;;;7.21;66.72;99919.50;5014426;27;101600;-82
2023/12/29 02:31:17;;;;;;;6.60;4.22;;;;;;;7.06;66.61;99891.19;5032187;27;96827;-83
2023/12/29 02:33:45;;;;;;;6.85;4.10;;;;;;;7.23;66.60;99917.69;5009409;27;96852;-83
2023/12/29 02:36:10;;;;;;;7.53;4.32;;;;;;;7.23;66.52;99906.41;5014919;27;101734;-82
2023/12/29 02:38:36;;;;;;;11.00;5.13;;;;;;;7.30;65.90;99907.97;5031125;27;98100;-82
2023/12/29 02:41:01;;;;;;;6.38;4.22;;;;;;;7.07;65.62;99878.97;5032187;27;97193;-82
2023/12/29 02:43:27;;;;;;;5.72;4.00;;;;;;;7.32;65.83;99906.13;5012027;28;96844;-82
2023/12/29 02:45:52;;;;;;;7.70;4.57;;;;;;;7.31;66.11;99903.59;5044676;27;98137;-82
2023/12/29 02:48:18;;;;;;;6.72;4.10;;;;;;;7.25;65.92;99902.00;5015373;27;101191;-82
2023/12/29 02:50:43;;;;;;;7.90;4.30;;;;;;;7.30;65.87;99899.25;5032223;27;96690;-82
2023/12/29 02:53:09;;;;;;;6.05;4.05;;;;;;;7.14;65.80;99875.31;5032660;27;96902;-82
2023/12/29 02:55:34;;;;;;;6.82;5.10;;;;;;;7.20;65.61;99877.75;5053467;27;97968;-82
2023/12/29 02:58:00;;;;;;;6.63;4.10;;;;;;;7.26;65.53;99885.44;5035855;27;97248;-82
2023/12/29 03:00:25;;;;;;;7.53;4.40;;;;;;;7.28;65.55;99881.03;5018400;27;97205;-82
2023/12/29 03:02:51;;;;;;;6.53;3.72;;;;;;;7.23;65.46;99878.53;5051702;27;97092;-81
2023/12/29 03:05:16;;;;;;;5.72;3.55;;;;;;;7.22;65.87;99871.59;5018929;27;98981;-82
2023/12/29 03:07:42;;;;;;;7.75;4.22;;;;;;;7.19;65.84;99876.06;5018531;27;101276;-82
2023/12/29 03:10:08;;;;;;;7.20;3.90;;;;;;;7.18;65.81;99875.19;5015599;28;96827;-82
2023/12/29 03:12:33;;;;;;;7.78;4.30;;;;;;;7.02;65.58;99851.25;5034507;27;96812;-82
2023/12/29 03:14:59;;;;;;;6.20;3.58;;;;;;;7.12;65.67;99869.28;5054202;27;97875;-82
2023/12/29 03:17:25;;;;;;;8.07;4.07;;;;;;;7.11;65.62;99872.78;5035753;27;98143;-82
2023/12/29 03:19:52;;;;;;;6.50;4.15;;;;;;;7.14;65.79;99870.09;5018839;27;96775;-82
2023/12/29 03:22:17;;;;;;;4.95;3.28;;;;;;;7.01;66.26;99849.56;5035018;27;97262;-82
2023/12/29 03:24:43;;;;;;;5.18;3.33;;;;;;;7.09;65.68;99832.81;5034638;27;98482;-82
2023/12/29 03:27:08;;;;;;;8.00;4.28;;;;;;;7.24;65.26;99858.50;5034371;27;97958;-80
2023/12/29 03:29:35;;;;;;;4.90;3.67;;;;;;;7.23;65.41;99848.97;5052522;27;96758;-80
2023/12/29 03:32:00;;;;;;;5.20;3.13;;;;;;;7.18;65.67;99851.69;5031453;27;97231;-80
2023/12/29 03:34:25;;;;;;;6.67;3.67;;;;;;;7.19;65.63;99855.19;5032236;27;98362;-81
2023/12/29 03:36:51;;;;;;;6.93;3.55;;;;;;;7.03;65.72;99829.47;5033746;27;101018;-81
2023/12/29 03:39:17;;;;;;;6.85;4.18;;;;;;;7.04;65.89;99827.75;5034565;27;96742;-80
2023/12/29 03:41:43;;;;;;;7.97;3.47;;;;;;;7.18;65.48;99856.91;5034832;27;96910;-81
2023/12/29 03:44:09;;;;;;;4.50;3.10;;;;;;;7.02;66.14;99863.47;5052916;27;98281;-80
2023/12/29 03:46:34;;;;;;;7.75;3.92;;;;;;;7.09;66.18;99859.78;5052561;27;97398;-81
2023/12/29 03:49:00;;;;;;;6.72;3.85;;;;;;;7.02;66.27;99851.25;5008834;27;96848;-80
2023/12/29 03:51:26;;;;;;;4.80;3.28;;;;;;;6.88;65.91;99816.84;5016979;27;96892;-80
2023/12/29 03:53:51;;;;;;;5.78;3.13;;;;;;;6.93;66.19;99829.78;5052484;27;98411;-80
2023/12/29 03:56:18;;;;;;;5.72;3.10;;;;;;;7.12;66.13;99856.22;5052671;27;97318;-79
2023/12/29 03:58:44;;;;;;;6.07;3.45;;;;;;;7.18;65.81;99843.00;5034083;27;96848;-80
2023/12/29 04:01:14;;;;;;;7.18;3.28;;;;;;;7.10;65.65;99824.09;5034292;27;97021;-81
2023/12/29 04:03:40;;;;;;;5.22;3.45;;;;;;;7.15;65.87;99843.09;5032401;27;98538;-83
2023/12/29 04:06:06;;;;;;;4.03;2.70;;;;;;;7.08;65.92;99837.19;5033905;27;101019;-82
2023/12/29 04:08:35;;;;;;;4.57;2.80;;;;;;;7.10;65.81;99834.53;5033737;27;96844;-82
2023/12/29 04:11:02;;;;;;;6.47;3.72;;;;;;;7.06;65.82;99832.91;5017814;27;97235;-83
2023/12/29 04:13:27;;;;;;;4.47;3.05;;;;;;;6.97;65.99;99831.41;5015675;27;100857;-83
2023/12/29 04:15:53;;;;;;;6.55;2.78;;;;;;;6.81;66.01;99802.28;5034112;27;101074;-83
2023/12/29 04:18:22;;;;;;;5.32;2.97;;;;;;;6.94;66.03;99824.50;5052608;27;97303;-83
2023/12/29 04:20:48;;;;;;;6.45;3.45;;;;;;;6.76;66.22;99798.91;5034118;27;97506;-83
2023/12/29 04:23:13;;;;;;;5.68;3.55;;;;;;;6.75;66.69;99815.47;5049999;27;97939;-83
2023/12/29 04:25:39;;;;;;;5.75;3.55;;;;;;;6.70;66.82;99815.59;5025256;27;98821;-83
2023/12/29 04:28:06;;;;;;;7.80;4.30;;;;;;;6.75;66.67;99811.13;5033378;27;96887;-83
2023/12/29 04:30:32;;;;;;;6.28;3.72;;;;;;;6.72;66.38;99807.72;5034376;27;97367;-83
2023/12/29 04:32:57;;;;;;;5.95;3.08;;;;;;;6.74;66.48;99798.09;5013351;27;101364;-83
2023/12/29 04:35:23;;;;;;;6.97;4.15;;;;;;;6.60;66.31;99779.34;5052497;27;97627;-83
2023/12/29 04:37:49;;;;;;;5.40;3.58;;;;;;;6.71;66.71;99809.47;5048888;27;97530;-83
2023/12/29 04:40:15;;;;;;;5.65;3.75;;;;;;;6.67;66.86;99802.63;5034093;27;96877;-83
2023/12/29 04:42:41;;;;;;;4.68;3.03;;;;;;;6.73;66.85;99806.84;5016256;27;101322;-81
2023/12/29 04:45:07;;;;;;;5.68;3.92;;;;;;;6.69;67.29;99805.19;5034095;27;97801;-83
2023/12/29 04:47:32;;;;;;;5.13;3.53;;;;;;;6.79;67.20;99802.28;5033287;27;97110;-82
2023/12/29 04:49:58;;;;;;;8.00;3.58;;;;;;;6.83;66.46;99802.22;5000300;27;96776;-81
2023/12/29 04:52:23;;;;;;;8.00;3.73;;;;;;;6.88;66.80;99802.94;5050984;27;98316;-80
2023/12/29 04:54:49;;;;;;;7.93;3.20;;;;;;;6.85;66.89;99803.03;5052461;27;97190;-81
2023/12/29 04:57:14;;;;;;;4.68;3.30;;;;;;;6.84;67.20;99806.56;5016641;27;97608;-84
2023/12/29 04:59:40;;;;;;;5.73;3.50;;;;;;;6.90;67.36;99795.94;5016337;27;97294;-83
2023/12/29 05:02:06;;;;;;;4.68;3.00;;;;;;;6.91;67.67;99795.03;5048082;27;97722;-83
2023/12/29 05:04:31;;;;;;;6.80;3.53;;;;;;;6.88;67.86;99780.31;5016876;27;100961;-83
2023/12/29 05:06:57;;;;;;;5.97;3.90;;;;;;;6.95;67.73;99789.72;5033630;27;97383;-83
2023/12/29 05:09:22;;;;;;;6.50;4.57;;;;;;;7.00;67.53;99797.38;5015811;27;97079;-84
2023/12/29 05:11:48;;;;;;;6.07;3.40;;;;;;;6.99;67.79;99786.09;5032804;27;98054;-83
2023/12/29 05:14:14;;;;;;;5.38;3.28;;;;;;;6.89;68.26;99763.75;5032888;27;101550;-83
2023/12/29 05:16:41;;;;;;;7.10;4.85;;;;;;;7.03;68.08;99787.72;5033378;27;97235;-83
2023/12/29 05:19:06;;;;;;;5.45;3.38;;;;;;;7.03;67.68;99756.41;5032429;27;98372;-83
2023/12/29 05:21:32;;;;;;;9.13;3.88;;;;;;;7.19;67.72;99788.16;5033376;27;97901;-83
2023/12/29 05:23:57;;;;;;;5.22;3.33;;;;;;;7.20;67.97;99787.25;5016344;27;101082;-80
2023/12/29 05:26:23;;;;;;;6.28;3.97;;;;;;;7.18;68.14;99783.81;5051080;27;96695;-81
2023/12/29 05:28:48;;;;;;;5.82;3.38;;;;;;;7.26;67.90;99788.81;5032592;27;96900;-80
2023/12/29 05:31:14;;;;;;;5.60;3.58;;;;;;;7.29;67.90;99785.28;5016123;27;101186;-82
2023/12/29 05:33:39;;;;;;;6.05;3.28;;;;;;;7.29;67.84;99786.13;5016066;27;97398;-84
2023/12/29 05:36:09;;;;;;;6.25;3.67;;;;;;;7.34;67.52;99794.69;5016480;27;96818;-81
2023/12/29 05:38:35;;;;;;;5.47;2.95;;;;;;;7.35;67.66;99792.94;5015279;27;97925;-81
2023/12/29 05:41:03;;;;;;;6.82;3.40;;;;;;;7.35;67.70;99782.47;5015096;27;98089;-81
2023/12/29 05:43:28;;;;;;;8.60;4.50;;;;;;;7.26;67.66;99760.97;5033115;27;97476;-81
2023/12/29 05:45:54;;;;;;;6.30;3.63;;;;;;;7.41;67.58;99779.69;5033629;27;96854;-81
2023/12/29 05:48:19;;;;;;;7.00;3.88;;;;;;;7.42;67.53;99782.25;5050860;27;96837;-80
2023/12/29 05:50:45;;;;;;;5.65;3.50;;;;;;;7.50;67.27;99784.63;5050829;27;98000;-80
2023/12/29 05:53:10;;;;;;;6.75;3.80;;;;;;;7.25;67.36;99755.81;5015437;27;100629;-81
2023/12/29 05:55:36;;;;;;;6.35;3.17;;;;;;;7.40;67.74;99789.28;5016353;27;97081;-81
2023/12/29 05:58:01;;;;;;;5.38;3.38;;;;;;;7.22;67.66;99761.97;5015577;27;97256;-81
2023/12/29 06:00:27;;;;;;;5.72;3.13;;;;;;;7.28;67.45;99755.72;5028537;27;98943;-81
2023/12/29 06:02:52;;;;;;;8.60;3.60;;;;;;;7.33;67.40;99761.66;5039951;27;97559;-81
2023/12/29 06:05:18;;;;;;;5.95;3.50;;;;;;;7.43;67.46;99783.13;5033506;27;96762;-81
2023/12/29 06:07:44;;;;;;;6.95;3.42;;;;;;;7.44;67.39;99780.44;5016676;27;97039;-81
2023/12/29 06:10:10;;;;;;;5.55;3.40;;;;;;;7.28;67.50;99750.50;5051377;27;97300;-81
2023/12/29 06:12:35;;;;;;;5.43;3.03;;;;;;;7.42;67.46;99782.25;5012417;28;97925;-81
2023/12/29 06:15:01;;;;;;;4.45;3.03;;;;;;;7.42;67.54;99779.66;5025879;27;97317;-81
2023/12/29 06:17:27;;;;;;;5.32;3.55;;;;;;;7.34;67.68;99768.56;5032743;27;97359;-81
2023/12/29 06:19:52;;;;;;;6.10;3.47;;;;;;;7.42;67.51;99778.81;5012281;28;101441;-81
2023/12/29 06:22:18;;;;;;;6.65;3.50;;;;;;;7.37;67.43;99767.63;5015150;27;97428;-81
2023/12/29 06:24:44;;;;;;;5.35;3.47;;;;;;;7.26;67.81;99754.88;5032978;27;97016;-81
2023/12/29 06:27:09;;;;;;;4.22;2.90;;;;;;;7.43;67.92;99776.13;5015752;27;96913;-81
2023/12/29 06:29:35;;;;;;;6.03;3.80;;;;;;;7.36;67.89;99748.50;5033437;27;97874;-80
2023/12/29 06:32:02;;;;;;;6.32;3.33;;;;;;;7.30;67.76;99753.91;5036070;27;97423;-81
2023/12/29 06:34:28;;;;;;;5.90;3.05;;;;;;;7.28;68.25;99763.53;5019996;27;96792;-80
2023/12/29 06:36:53;;;;;;;4.63;3.33;;;;;;;7.26;68.27;99760.97;5036488;27;97177;-81
2023/12/29 06:39:18;;;;;;;5.35;2.95;;;;;;;7.42;67.86;99771.81;5035017;27;101183;-81
2023/12/29 06:41:44;;;;;;;5.85;3.20;;;;;;;7.44;67.61;99759.56;5015971;28;98180;-81
2023/12/29 06:44:10;;;;;;;4.95;3.00;;;;;;;7.43;67.92;99757.84;5016490;28;98241;-81
2023/12/29 06:46:39;;;;;;;7.80;2.78;;;;;;;7.51;67.90;99756.78;4998721;28;97358;-81
2023/12/29 06:49:07;;;;;;;5.05;3.28;;;;;;;7.42;67.96;99753.53;5015668;27;101365;-81
2023/12/29 06:51:34;;;;;;;5.75;3.15;;;;;;;7.41;67.77;99750.97;5018332;27;97455;-81
2023/12/29 06:53:59;;;;;;;4.80;2.78;;;;;;;7.48;67.29;99768.16;5036752;27;96842;-80
2023/12/29 06:56:25;;;;;;;7.03;3.08;;;;;;;7.51;67.72;99782.91;5019581;27;96935;-80
2023/12/29 06:58:51;;;;;;;4.57;3.33;;;;;;;7.36;67.66;99760.69;5015463;27;100859;-80
2023/12/29 07:01:17;;;;;;;6.78;3.25;;;;;;;7.41;67.86;99780.53;5018435;27;100796;-80
2023/12/29 07:03:42;;;;;;;7.70;3.83;;;;;;;7.47;67.43;99777.75;5052767;27;96779;-80
2023/12/29 07:06:08;;;;;;;4.22;2.85;;;;;;;7.45;67.45;99781.31;5016344;28;96838;-80
2023/12/29 07:08:34;;;;;;;7.03;3.35;;;;;;;7.41;67.21;99757.03;5029573;27;97325;-80
2023/12/29 07:10:59;;;;;;;4.85;2.85;;;;;;;7.53;66.92;99768.88;5054415;27;97362;-80
2023/12/29 07:13:25;;;;;;;7.75;3.40;;;;;;;7.51;66.72;99754.16;5035609;27;97124;-80
2023/12/29 07:15:50;;;;;;;5.45;3.92;;;;;;;7.59;66.49;99760.00;5054315;27;96940;-80
2023/12/29 07:18:16;;;;;;;6.78;4.03;;;;;;;7.67;66.46;99773.69;5022739;27;101258;-81
2023/12/29 07:20:42;;;;;;;6.55;3.50;;;;;;;7.69;66.37;99775.34;5054294;27;97550;-80
2023/12/29 07:23:08;;;;;;;6.68;3.70;;;;;;;7.75;66.67;99771.69;5017416;27;96905;-80
2023/12/29 07:25:33;;;;;;;6.75;3.55;;;;;;;7.75;66.31;99770.84;5031968;27;96840;-82
2023/12/29 07:27:59;;;;;;;6.43;2.85;;;;;;;7.76;66.55;99769.94;5027171;27;97448;-83
2023/12/29 07:30:25;;;;;;;4.72;3.13;;;;;;;7.78;66.68;99782.03;5013580;27;101376;-82
2023/12/29 07:32:51;;;;;;;6.70;3.53;;;;;;;7.58;66.78;99751.31;5009269;27;97869;-81
2023/12/29 07:35:17;;;;;;;5.70;3.15;;;;;;;7.63;66.66;99751.19;5018546;27;97220;-81
2023/12/29 07:37:44;;;;;;;5.97;3.70;;;;;;;7.83;66.66;99780.16;4981058;27;100935;-80
2023/12/29 07:40:13;;;;;;;5.70;3.20;;;;;;;7.69;66.13;99756.22;4995055;27;100764;-84
2023/12/29 07:42:39;;;;;;;6.65;3.80;;;;;;;7.88;66.33;99777.38;5027294;27;96803;-83
2023/12/29 07:45:05;;;;;;;7.03;2.97;;;;;;;7.77;65.98;99750.75;5013610;27;96797;-83
2023/12/29 07:47:31;;;;;;;8.80;3.53;;;;;;;7.80;65.70;99737.59;5002337;27;99326;-83
2023/12/29 07:49:57;;;;;;;10.55;3.35;;;;;;;7.92;65.69;99764.16;4997532;27;101466;-83
2023/12/29 07:52:23;;;;;;;7.72;4.13;;;;;;;7.99;66.11;99766.59;5009882;27;96864;-83
2023/12/29 07:54:49;;;;;;;8.65;3.53;;;;;;;8.04;65.47;99764.69;4999816;27;97058;-83
2023/12/29 07:57:14;;;;;;;10.88;4.30;;;;;;;8.05;65.67;99764.63;5039367;27;98456;-83
2023/12/29 07:59:40;;;;;;;7.88;4.05;;;;;;;8.10;65.27;99762.72;5024713;27;97937;-83
2023/12/29 08:02:06;;;;;;;12.48;4.38;;;;;;;8.11;64.92;99751.34;5020470;27;97123;-83
2023/12/29 08:04:32;;;;;;;6.85;4.57;;;;;;;8.13;64.89;99746.94;5053176;27;96814;-82
2023/12/29 08:06:57;;;;;;;8.52;3.95;;;;;;;8.30;64.58;99763.84;5020530;27;97429;-82
2023/12/29 08:09:23;;;;;;;7.88;3.80;;;;;;;8.29;64.39;99762.09;5016644;28;97423;-83
2023/12/29 08:11:49;;;;;;;7.38;3.60;;;;;;;8.41;64.16;99764.34;4998244;27;96820;-83
2023/12/29 08:14:15;;;;;;;6.60;3.40;;;;;;;8.46;64.41;99748.50;5019117;28;96835;-83
2023/12/29 08:16:41;;;;;;;5.38;3.28;;;;;;;8.49;64.01;99757.06;5009962;27;100986;-84
2023/12/29 08:19:07;;;;;;;10.18;2.90;;;;;;;8.52;63.69;99748.28;5042436;27;97395;-83
2023/12/29 08:21:33;;;;;;;9.52;3.05;;;;;;;8.57;63.90;99747.22;5039426;27;96754;-82
2023/12/29 08:23:58;;;;;;;6.65;2.60;;;;;;;8.65;63.46;99746.94;5016439;28;96752;-77
2023/12/29 08:26:24;;;;;;;5.30;2.75;;;;;;;8.84;63.17;99761.09;5022387;27;97900;-77
2023/12/29 08:28:50;;;;;;;4.65;3.20;;;;;;;9.03;63.46;99768.28;5016594;27;100789;-78
2023/12/29 08:31:16;;;;;;;6.43;2.40;;;;;;;9.20;62.86;99757.19;5044790;27;96839;-78
2023/12/29 08:33:42;;;;;;;9.10;3.13;;;;;;;9.43;62.33;99753.72;5024243;27;97498;-78
2023/12/29 08:36:07;;;;;;;4.38;2.42;;;;;;;9.66;61.91;99760.69;5023752;27;97465;-78
2023/12/29 08:38:33;;;;;;;4.50;2.47;;;;;;;9.81;61.46;99738.25;5016158;27;101060;-78
2023/12/29 08:40:59;;;;;;;5.40;2.53;;;;;;;10.08;60.76;99749.38;4997338;28;96731;-78
2023/12/29 08:43:26;;;;;;;4.95;2.28;;;;;;;10.30;60.10;99755.47;5002705;28;97141;-77
2023/12/29 08:45:51;;;;;;;3.90;2.45;;;;;;;10.67;59.55;99750.44;5021406;27;98335;-80
2023/12/29 08:48:17;;;;;;;6.10;2.50;;;;;;;10.69;59.49;99738.94;5015316;28;97516;-79
2023/12/29 08:50:43;;;;;;;4.43;2.65;;;;;;;10.71;59.44;99728.41;5019750;27;98994;-80
2023/12/29 08:53:12;;;;;;;5.78;2.53;;;;;;;11.12;58.68;99736.19;5019296;27;96902;-80
2023/12/29 08:55:38;;;;;;;8.05;2.00;;;;;;;11.10;57.55;99691.59;5004481;27;97423;-81
2023/12/29 08:58:03;;;;;;;4.72;2.00;;;;;;;11.47;57.14;99731.94;5014223;27;97557;-80
2023/12/29 09:00:30;;;;;;;5.95;2.40;;;;;;;11.99;56.35;99748.72;5002423;27;98225;-80
2023/12/29 09:02:56;;;;;;;2.10;1.58;;;;;;;12.12;55.85;99743.69;5016335;27;97534;-80
2023/12/29 09:05:22;;;;;;;4.57;1.80;;;;;;;12.41;55.41;99757.19;5020002;27;101535;-80
2023/12/29 09:07:48;;;;;;;3.80;1.80;;;;;;;12.47;54.79;99762.13;5014248;27;101060;-79
2023/12/29 09:10:14;;;;;;;4.47;2.22;;;;;;;12.42;54.79;99743.09;5019948;27;96932;-80
2023/12/29 09:12:40;;;;;;;3.72;2.33;;;;;;;12.72;54.42;99751.22;5022507;27;98619;-80
2023/12/29 09:15:06;;;;;;;5.22;2.20;;;;;;;12.85;53.69;99759.31;5019806;27;101475;-78
2023/12/29 09:17:32;;;;;;;3.25;2.00;;;;;;;13.06;53.32;99755.56;4998258;27;100791;-83
2023/12/29 09:19:57;;;;;;;4.45;2.00;;;;;;;12.87;53.73;99758.31;4998076;27;97353;-79
2023/12/29 09:22:23;;;;;;;3.65;2.03;;;;;;;13.02;53.20;99763.69;5028832;27;96816;-77
2023/12/29 09:24:48;;;;;;;4.15;1.70;;;;;;;13.07;52.76;99735.34;5021207;27;98098;-77
2023/12/29 09:27:14;;;;;;;2.90;1.90;;;;;;;13.24;52.54;99756.34;5032025;27;97707;-77
2023/12/29 09:29:40;;;;;;;3.08;1.98;;;;;;;13.30;51.66;99734.13;5006303;27;96746;-77
2023/12/29 09:32:06;;;;;;;2.78;1.80;;;;;;;13.43;52.23;99745.69;5052905;27;96748;-77
2023/12/29 09:34:31;;;;;;;2.50;1.80;;;;;;;13.30;52.08;99755.22;5046680;27;97930;-79
2023/12/29 09:36:57;;;;;;;5.22;2.15;;;;;;;13.29;51.87;99766.66;5007801;27;97990;-79
2023/12/29 09:39:22;;;;;;;5.97;1.90;;;;;;;13.35;52.22;99756.66;5017441;27;97035;-77
2023/12/29 09:41:51;;;;;;;3.85;2.05;;;;;;;13.42;51.92;99762.44;5023199;27;96935;-80
2023/12/29 09:44:20;;;;;;;3.90;2.25;;;;;;;13.04;52.70;99738.13;5000472;27;97945;-79
2023/12/29 09:46:49;;;;;;;2.58;1.58;;;;;;;12.95;52.54;99741.25;4991367;27;99875;-77
2023/12/29 09:49:16;;;;;;;3.10;1.77;;;;;;;12.91;52.85;99719.47;5014220;27;97364;-78
2023/12/29 09:51:42;;;;;;;5.35;2.00;;;;;;;13.16;52.61;99768.25;5025754;27;97962;-86
2023/12/29 09:54:08;;;;;;;3.22;1.73;;;;;;;13.09;52.49;99734.31;5025083;27;98030;-84
2023/12/29 09:56:34;;;;;;;4.70;1.88;;;;;;;13.44;52.39;99750.03;5025145;27;96929;-84
2023/12/29 09:59:00;;;;;;;2.67;1.58;;;;;;;13.40;51.84;99764.31;5018538;27;97385;-85
2023/12/29 10:01:29;;;;;;;5.28;1.67;;;;;;;13.36;52.01;99753.09;5006511;27;96871;-85
2023/12/29 10:03:54;;;;;;;2.95;2.00;;;;;;;13.40;51.57;99740.59;5010803;27;101087;-85
2023/12/29 10:06:26;;;;;;;4.80;2.17;;;;;;;13.72;51.27;99770.44;5028095;27;97971;-86
2023/12/29 10:08:53;;;;;;;9.05;2.45;;;;;;;13.75;51.59;99767.63;5030955;27;97016;-84
2023/12/29 10:11:21;;;;;;;10.98;2.60;;;;;;;13.68;51.37;99742.53;5045419;27;97237;-86
2023/12/29 10:13:47;;;;;;;4.25;2.20;;;;;;;13.85;50.96;99761.88;5013358;27;101579;-85
2023/12/29 10:16:40;;;;;;;6.35;2.15;;;;;;;13.85;51.47;99767.13;4986428;28;99984;-85
2023/12/29 10:19:41;;;;;;;5.82;2.20;;;;;;;13.70;51.69;99751.22;4997575;27;97163;-85
2023/12/29 10:22:21;;;;;;;13.00;2.42;;;;;;;13.58;51.21;99765.97;4987463;28;97326;-86
2023/12/29 10:24:47;;;;;;;6.35;2.45;;;;;;;13.67;51.06;99761.97;5020416;27;97767;-86
2023/12/29 10:27:13;;;;;;;7.72;2.10;;;;;;;13.58;51.17;99760.69;5029803;27;98083;-86
2023/12/29 10:29:39;;;;;;;6.38;2.17;;;;;;;13.67;50.98;99763.72;4998343;27;96809;-88
2023/12/29 10:32:05;;;;;;;3.15;1.85;;;;;;;13.53;51.44;99765.34;5018611;27;97123;-88
2023/12/29 10:34:31;;;;;;;5.03;2.30;;;;;;;13.35;52.21;99771.59;5016055;27;97128;-87
2023/12/29 10:36:58;;;;;;;5.50;2.08;;;;;;;13.32;51.89;99763.88;5002349;27;101526;-88
2023/12/29 10:39:24;;;;;;;3.05;1.88;;;;;;;13.44;52.06;99764.97;5015015;27;96756;-89
2023/12/29 10:41:50;;;;;;;2.75;1.83;;;;;;;13.37;52.18;99753.94;5023951;27;96988;-89
2023/12/29 10:44:16;;;;;;;3.38;1.77;;;;;;;13.46;52.34;99761.34;5052634;27;98669;-88
2023/12/29 10:46:42;;;;;;;4.43;1.85;;;;;;;13.50;52.08;99769.94;5011294;27;99840;-87
2023/12/29 10:49:12;;;;;;;3.90;1.80;;;;;;;13.52;51.99;99758.34;5017517;27;96930;-86
2023/12/29 10:51:38;;;;;;;6.22;2.28;;;;;;;13.64;51.81;99764.72;4999240;27;97587;-86
2023/12/29 10:54:04;;;;;;;3.88;2.20;;;;;;;13.69;51.66;99756.59;5024265;27;101647;-85
2023/12/29 10:56:33;;;;;;;4.35;2.30;;;;;;;13.63;51.72;99765.69;5015363;27;101531;-86
2023/12/29 10:59:05;;;;;;;4.70;2.20;;;;;;;13.54;52.00;99753.84;5042026;27;96762;-86
2023/12/29 11:01:33;;;;;;;3.97;2.00;;;;;;;13.47;51.81;99727.94;5011179;27;97256;-86
2023/12/29 11:04:05;;;;;;;3.92;1.85;;;;;;;13.48;52.53;99745.44;5014319;27;100988;-87
2023/12/29 11:06:44;;;;;;;8.00;2.10;;;;;;;13.35;52.01;99721.53;5032174;27;98429;-86
2023/12/29 11:09:10;;;;;;;4.07;2.00;;;;;;;13.28;52.09;99739.47;5033551;27;96842;-86
2023/12/29 11:11:36;;;;;;;4.82;2.50;;;;;;;13.39;52.72;99744.16;5029809;27;97047;-81
2023/12/29 11:14:02;;;;;;;2.92;2.08;;;;;;;13.17;52.94;99739.16;5013162;27;100968;-81
2023/12/29 11:16:29;;;;;;;3.53;2.20;;;;;;;13.11;52.86;99742.13;5012761;27;97891;-81
2023/12/29 11:18:56;;;;;;;3.85;2.30;;;;;;;13.14;52.84;99740.16;5042240;27;96790;-81
2023/12/29 11:21:22;;;;;;;5.72;2.00;;;;;;;13.08;52.60;99718.56;5026266;27;97597;-81
2023/12/29 11:23:48;;;;;;;7.07;2.40;;;;;;;12.95;53.07;99702.59;5029822;27;97453;-81
2023/12/29 11:26:14;;;;;;;2.95;1.63;;;;;;;13.07;52.29;99719.53;5024869;27;97534;-81
2023/12/29 11:28:39;;;;;;;4.22;2.05;;;;;;;13.11;52.68;99734.22;5026847;27;96819;-82
2023/12/29 11:31:05;;;;;;;15.70;2.50;;;;;;;12.80;52.92;99691.09;5013114;27;97450;-82
2023/12/29 11:33:37;;;;;;;3.55;2.08;;;;;;;12.80;52.67;99709.53;5017509;27;102241;-82